Time;durP1;ratioP1;P1;durP2;ratioP2;P2;SDS_P1;SDS_P2;PMS_P1;PMS_P2;Temp;Humidity;BMP_temperature;BMP_pressure;BME280_temperature;BME280_humidity;BME280_pressure;Samples;Min_cycle;Max_cycle;Signal;HPM_P1;HPM_P2
2022/07/03 00:02:09;;;;;;;11.03;5.23;;;17.90;96.60;;;;;;5016340;28;20088;-77
2022/07/03 00:04:35;;;;;;;9.55;5.50;;;18.00;96.80;;;;;;4982477;28;20478;-76
2022/07/03 00:07:00;;;;;;;9.57;5.57;;;18.00;96.80;;;;;;5016687;28;20053;-76
2022/07/03 00:09:26;;;;;;;7.80;5.20;;;18.00;96.90;;;;;;5031375;28;20137;-77
2022/07/03 00:11:52;;;;;;;8.03;5.40;;;18.00;96.90;;;;;;5019261;28;20133;-78
2022/07/03 00:14:18;;;;;;;13.93;5.80;;;18.00;96.80;;;;;;5019381;28;20026;-78
2022/07/03 00:16:44;;;;;;;12.37;5.53;;;18.00;96.80;;;;;;5036929;28;20034;-77
2022/07/03 00:19:10;;;;;;;9.80;5.38;;;18.00;96.80;;;;;;5030513;28;20102;-77
2022/07/03 00:21:45;;;;;;;10.37;5.40;;;18.00;96.90;;;;;;5016389;28;20046;-75
2022/07/03 00:24:23;;;;;;;9.02;5.50;;;18.00;97.10;;;;;;5016371;28;20069;-76
2022/07/03 00:26:52;;;;;;;10.05;4.93;;;18.00;97.20;;;;;;5016347;28;20092;-77
2022/07/03 00:29:20;;;;;;;11.55;5.90;;;17.90;97.10;;;;;;5016364;28;20056;-75
2022/07/03 00:31:47;;;;;;;9.55;5.10;;;17.90;97.10;;;;;;5014354;28;20056;-75
2022/07/03 00:34:16;;;;;;;13.13;5.47;;;17.90;97.10;;;;;;5014285;28;20050;-77
2022/07/03 00:36:43;;;;;;;11.20;5.00;;;17.80;97.20;;;;;;5013731;28;20119;-77
2022/07/03 00:39:09;;;;;;;10.15;5.35;;;17.70;97.30;;;;;;5013991;28;20054;-78
2022/07/03 00:41:36;;;;;;;10.80;5.73;;;17.70;97.40;;;;;;5013935;28;20056;-78
2022/07/03 00:44:03;;;;;;;13.45;5.47;;;17.60;97.50;;;;;;5013354;28;20066;-77
2022/07/03 00:46:29;;;;;;;12.02;6.28;;;17.60;97.60;;;;;;5014032;28;20065;-78
2022/07/03 00:48:56;;;;;;;11.85;5.65;;;17.50;97.70;;;;;;4979855;28;20085;-78
2022/07/03 00:51:37;;;;;;;10.93;5.65;;;17.50;98.00;;;;;;4996349;28;20058;-77
2022/07/03 00:54:04;;;;;;;11.38;5.47;;;17.40;98.90;;;;;;5013644;28;20370;-77
2022/07/03 00:56:30;;;;;;;9.90;5.20;;;17.40;98.50;;;;;;4995773;28;20049;-76
2022/07/03 00:58:58;;;;;;;10.18;5.47;;;17.30;98.40;;;;;;5013188;28;20053;-77
2022/07/03 01:01:34;;;;;;;10.70;5.40;;;17.30;98.50;;;;;;4995992;28;20093;-77
2022/07/03 01:04:22;;;;;;;10.15;5.75;;;17.20;98.80;;;;;;5013299;28;20057;-78
2022/07/03 01:07:02;;;;;;;9.82;5.50;;;17.20;99.10;;;;;;5013186;28;20113;-77
2022/07/03 01:10:03;;;;;;;11.27;5.80;;;17.20;99.00;;;;;;5013256;28;20129;-79
2022/07/03 01:13:13;;;;;;;9.80;5.90;;;17.00;99.30;;;;;;5013196;28;20117;-79
2022/07/03 01:15:38;;;;;;;9.65;5.78;;;17.00;99.80;;;;;;4952720;28;20062;-77
2022/07/03 01:18:36;;;;;;;9.37;5.43;;;16.90;98.90;;;;;;4985943;28;20054;-77
2022/07/03 01:21:10;;;;;;;10.15;5.63;;;16.80;99.60;;;;;;4995594;28;20056;-77
2022/07/03 01:24:16;;;;;;;10.48;5.72;;;16.80;99.50;;;;;;5012952;28;20080;-77
2022/07/03 01:26:45;;;;;;;9.23;6.18;;;16.80;99.90;;;;;;5012906;28;20100;-77
2022/07/03 01:29:18;;;;;;;10.15;6.50;;;16.60;99.90;;;;;;5013151;28;20060;-77
2022/07/03 01:31:48;;;;;;;11.05;6.13;;;16.60;99.90;;;;;;4995998;28;20049;-77
2022/07/03 01:34:17;;;;;;;13.75;7.22;;;16.50;99.90;;;;;;5012771;28;20125;-78
2022/07/03 01:36:43;;;;;;;16.42;7.95;;;16.50;99.90;;;;;;5013081;28;20075;-77
2022/07/03 01:39:15;;;;;;;13.63;8.88;;;16.40;99.90;;;;;;5012926;28;20052;-78
2022/07/03 01:41:44;;;;;;;15.45;8.77;;;16.40;99.90;;;;;;4978991;28;20045;-81
2022/07/03 01:44:13;;;;;;;16.50;8.75;;;16.40;99.90;;;;;;4995232;28;20061;-77
2022/07/03 01:46:42;;;;;;;12.77;7.60;;;16.30;99.90;;;;;;4979940;28;20062;-76
2022/07/03 01:49:10;;;;;;;11.77;6.93;;;16.30;99.90;;;;;;4995559;28;20153;-76
2022/07/03 01:51:39;;;;;;;13.73;7.65;;;16.20;99.90;;;;;;4996877;28;20068;-78
2022/07/03 01:54:05;;;;;;;15.77;7.53;;;16.20;99.90;;;;;;5012918;28;20547;-78
2022/07/03 01:56:33;;;;;;;18.67;8.73;;;16.10;99.90;;;;;;4995774;28;20501;-80
2022/07/03 01:58:59;;;;;;;15.85;9.38;;;16.00;99.90;;;;;;4996596;28;20080;-78
2022/07/03 02:01:42;;;;;;;14.98;8.77;;;16.00;99.90;;;;;;4978894;28;20486;-77
2022/07/03 02:04:52;;;;;;;21.63;8.70;;;16.00;99.90;;;;;;4995085;28;20045;-76
2022/07/03 02:07:38;;;;;;;15.55;8.95;;;15.90;99.90;;;;;;4920841;29;20067;-76
2022/07/03 02:10:06;;;;;;;;;;;15.90;99.90;;;;;;5013487;28;20058;-76
2022/07/03 02:12:54;;;;;;;17.05;7.80;;;15.80;99.90;;;;;;5012698;28;19928;-79
2022/07/03 02:15:30;;;;;;;16.48;8.88;;;15.80;99.90;;;;;;4979265;28;20046;-76
2022/07/03 02:17:59;;;;;;;15.07;9.00;;;15.70;99.90;;;;;;5013008;28;20081;-77
2022/07/03 02:20:25;;;;;;;18.02;9.48;;;15.70;99.90;;;;;;5012511;28;20046;-76
2022/07/03 02:23:01;;;;;;;14.17;8.73;;;15.60;99.90;;;;;;4994801;28;20478;-77
2022/07/03 02:25:35;;;;;;;16.23;9.82;;;15.60;99.90;;;;;;4995225;28;20042;-77
2022/07/03 02:28:04;;;;;;;17.70;11.18;;;15.50;99.90;;;;;;4995367;28;20050;-78
2022/07/03 02:30:33;;;;;;;18.20;10.95;;;15.40;99.90;;;;;;5014977;28;20049;-78
2022/07/03 02:33:01;;;;;;;17.38;11.40;;;15.40;99.90;;;;;;4999217;28;20074;-77
2022/07/03 02:35:32;;;;;;;19.83;11.50;;;15.30;99.90;;;;;;4999146;28;20122;-77
2022/07/03 02:38:19;;;;;;;18.85;11.32;;;15.20;99.90;;;;;;4998777;28;20081;-78
2022/07/03 02:40:51;;;;;;;19.27;11.57;;;15.20;99.90;;;;;;4999350;28;20104;-76
2022/07/03 02:43:34;;;;;;;22.23;12.95;;;15.10;99.90;;;;;;5016152;28;20522;-77
2022/07/03 02:49:23;;;;;;;20.88;14.65;;;;;;;;;;5016605;28;20108;-76
2022/07/03 02:52:02;;;;;;;23.83;15.05;;;15.00;99.90;;;;;;4998535;28;20050;-76
2022/07/03 02:54:36;;;;;;;26.80;15.57;;;;;;;;;;4998869;28;20054;-75
2022/07/03 02:57:07;;;;;;;23.02;14.50;;;;;;;;;;5016110;28;20058;-76
2022/07/03 02:59:54;;;;;;;19.85;13.88;;;14.90;99.90;;;;;;4998352;28;20046;-77
2022/07/03 03:02:38;;;;;;;22.42;13.48;;;14.90;99.90;;;;;;5017931;28;20049;-76
2022/07/03 03:05:15;;;;;;;25.48;15.85;;;14.80;99.90;;;;;;5019942;28;20060;-78
2022/07/03 03:07:48;;;;;;;24.77;16.70;;;14.70;99.90;;;;;;5000745;28;20085;-80
2022/07/03 03:10:19;;;;;;;24.90;15.57;;;14.70;99.90;;;;;;5016864;28;20053;-77
2022/07/03 03:12:48;;;;;;;26.15;15.23;;;14.60;99.90;;;;;;4983245;28;20050;-77
2022/07/03 03:15:14;;;;;;;26.50;15.57;;;14.60;99.90;;;;;;5000111;28;20069;-76
2022/07/03 03:17:43;;;;;;;28.15;16.17;;;14.50;99.90;;;;;;5000281;28;20104;-80
2022/07/03 03:20:15;;;;;;;28.95;16.60;;;14.50;99.90;;;;;;5018939;28;20096;-77
2022/07/03 03:23:05;;;;;;;27.30;16.58;;;14.60;99.90;;;;;;5001718;28;20048;-81
2022/07/03 03:25:32;;;;;;;30.13;16.30;;;14.60;99.90;;;;;;5000673;28;20082;-76
2022/07/03 03:27:59;;;;;;;24.93;15.30;;;14.50;99.90;;;;;;4998800;28;20057;-76
2022/07/03 03:30:24;;;;;;;25.17;17.10;;;14.50;99.90;;;;;;5001160;28;20046;-76
2022/07/03 03:32:50;;;;;;;24.25;16.17;;;14.50;99.90;;;;;;5019815;28;20048;-77
2022/07/03 03:35:16;;;;;;;27.75;17.13;;;14.50;99.90;;;;;;4985498;28;20435;-78
2022/07/03 03:37:44;;;;;;;25.13;16.73;;;14.60;99.90;;;;;;5000765;28;20053;-80
2022/07/03 03:40:11;;;;;;;22.55;15.88;;;14.60;99.90;;;;;;5016007;28;20042;-76
2022/07/03 03:42:37;;;;;;;25.35;16.80;;;14.70;99.90;;;;;;5014328;28;20053;-76
2022/07/03 03:45:03;;;;;;;28.60;16.88;;;14.70;99.90;;;;;;4981326;28;20049;-77
2022/07/03 03:47:30;;;;;;;29.77;17.83;;;14.80;99.90;;;;;;5014895;28;20050;-77
2022/07/03 03:49:55;;;;;;;24.92;16.08;;;14.90;99.90;;;;;;5014683;28;20053;-77
2022/07/03 03:52:21;;;;;;;26.33;16.83;;;15.00;99.90;;;;;;4997409;28;20046;-76
2022/07/03 03:54:47;;;;;;;27.67;16.73;;;15.20;99.90;;;;;;4997314;28;20042;-77
2022/07/03 03:57:20;;;;;;;25.60;16.98;;;15.20;99.90;;;;;;5014608;28;20131;-76
2022/07/03 03:59:47;;;;;;;22.73;16.48;;;15.30;99.90;;;;;;5015206;28;20045;-78
2022/07/03 04:02:12;;;;;;;24.83;16.37;;;15.30;99.90;;;;;;5015000;28;20042;-75
2022/07/03 04:04:38;;;;;;;28.40;16.98;;;15.30;99.90;;;;;;5014431;28;20507;-75
2022/07/03 04:07:04;;;;;;;25.98;16.38;;;15.40;99.90;;;;;;5014935;28;20045;-76
2022/07/03 04:09:30;;;;;;;26.47;17.10;;;15.40;99.90;;;;;;5014467;28;20046;-77
2022/07/03 04:11:57;;;;;;;23.52;17.40;;;15.50;99.90;;;;;;4996979;28;20057;-77
2022/07/03 04:14:22;;;;;;;24.17;17.00;;;15.50;99.90;;;;;;5014696;28;20088;-75
2022/07/03 04:16:48;;;;;;;27.23;18.30;;;15.50;99.90;;;;;;5014018;28;20367;-77
2022/07/03 04:19:14;;;;;;;33.83;17.80;;;15.50;99.90;;;;;;5014437;28;20042;-76
2022/07/03 04:21:40;;;;;;;25.23;16.98;;;15.50;99.90;;;;;;4997171;28;20208;-76
2022/07/03 04:24:06;;;;;;;28.80;17.27;;;15.50;99.90;;;;;;5014691;28;20052;-75
2022/07/03 04:26:32;;;;;;;25.60;17.48;;;15.50;99.90;;;;;;5014813;28;20289;-76
2022/07/03 04:28:58;;;;;;;28.70;17.70;;;15.50;99.90;;;;;;5014327;28;20081;-77
2022/07/03 04:31:23;;;;;;;26.20;16.42;;;15.50;99.90;;;;;;5013908;28;20371;-76
2022/07/03 04:33:49;;;;;;;26.63;16.63;;;15.50;99.90;;;;;;5014259;28;20042;-76
2022/07/03 04:36:16;;;;;;;26.60;17.35;;;15.40;99.90;;;;;;5014133;28;20137;-76
2022/07/03 04:38:42;;;;;;;26.75;17.60;;;15.40;99.90;;;;;;4996476;28;20046;-75
2022/07/03 04:41:08;;;;;;;25.15;17.70;;;15.40;99.90;;;;;;4996830;28;20060;-76
2022/07/03 04:43:36;;;;;;;28.23;18.23;;;15.40;99.90;;;;;;5013722;28;20061;-76
2022/07/03 04:46:02;;;;;;;25.23;18.02;;;15.30;99.90;;;;;;5014121;28;20050;-76
2022/07/03 04:48:29;;;;;;;24.55;17.75;;;15.30;99.90;;;;;;4980331;28;20049;-75
2022/07/03 04:50:55;;;;;;;27.88;17.65;;;15.30;99.90;;;;;;5014629;28;20050;-76
2022/07/03 04:53:20;;;;;;;26.55;17.90;;;15.30;99.90;;;;;;4995353;28;20054;-76
2022/07/03 04:55:46;;;;;;;25.73;18.33;;;15.30;99.90;;;;;;4996210;28;20102;-76
2022/07/03 04:58:12;;;;;;;26.23;18.50;;;15.20;99.90;;;;;;5013481;28;20133;-76
2022/07/03 05:00:40;;;;;;;29.83;17.70;;;15.20;99.90;;;;;;5013757;28;20057;-76
2022/07/03 05:03:06;;;;;;;26.10;17.88;;;15.20;99.90;;;;;;4996989;28;20053;-78
2022/07/03 05:05:32;;;;;;;27.25;17.75;;;15.20;99.90;;;;;;4996743;28;20085;-78
2022/07/03 05:07:58;;;;;;;28.92;18.20;;;15.20;99.90;;;;;;5014570;28;20042;-77
2022/07/03 05:10:24;;;;;;;28.67;18.47;;;15.20;99.90;;;;;;4997589;28;20397;-77
2022/07/03 05:12:50;;;;;;;28.52;18.30;;;15.30;99.90;;;;;;4996949;28;20046;-80
2022/07/03 05:15:16;;;;;;;30.52;18.63;;;15.30;99.90;;;;;;4998451;28;20107;-77
2022/07/03 05:17:41;;;;;;;29.45;18.25;;;15.40;99.90;;;;;;4996993;28;20050;-77
2022/07/03 05:22:54;;;;;;;26.65;18.60;;;15.60;99.90;;;;;;5013220;28;20046;-80
2022/07/03 05:25:20;;;;;;;30.63;18.23;;;15.70;99.90;;;;;;5013494;28;20050;-76
2022/07/03 05:27:46;;;;;;;25.50;18.35;;;15.80;99.90;;;;;;5013624;28;20052;-76
2022/07/03 05:30:13;;;;;;;28.02;18.90;;;15.90;99.90;;;;;;5013045;28;20121;-76
2022/07/03 05:32:39;;;;;;;28.50;20.05;;;16.10;99.90;;;;;;5013386;28;20061;-78
2022/07/03 05:35:05;;;;;;;31.70;19.20;;;16.20;99.90;;;;;;4995448;28;20165;-75
2022/07/03 05:37:31;;;;;;;29.88;19.77;;;16.20;99.90;;;;;;4995593;28;20133;-76
2022/07/03 05:39:57;;;;;;;28.15;18.27;;;16.30;99.90;;;;;;4996173;28;20386;-75
2022/07/03 05:42:23;;;;;;;29.00;20.05;;;16.30;99.90;;;;;;5013706;28;20095;-78
2022/07/03 05:44:48;;;;;;;25.85;18.38;;;16.30;99.90;;;;;;5015798;28;20503;-78
2022/07/03 05:47:14;;;;;;;31.20;19.57;;;16.40;99.90;;;;;;5014666;28;20534;-78
2022/07/03 05:49:40;;;;;;;27.67;19.90;;;16.40;99.90;;;;;;4996772;28;20516;-80
2022/07/03 05:52:06;;;;;;;31.23;20.50;;;16.50;99.90;;;;;;4964409;28;20078;-78
2022/07/03 05:54:32;;;;;;;25.65;18.27;;;16.60;99.90;;;;;;5013468;28;20046;-77
2022/07/03 05:56:57;;;;;;;28.27;19.40;;;16.70;99.90;;;;;;5013030;28;20046;-78
2022/07/03 05:59:23;;;;;;;22.90;16.17;;;16.80;99.90;;;;;;5014271;28;20080;-75
2022/07/03 06:01:49;;;;;;;26.73;16.30;;;17.00;99.90;;;;;;5002253;28;20468;-78
2022/07/03 06:04:14;;;;;;;27.10;15.40;;;17.10;99.90;;;;;;5000573;28;20042;-77
2022/07/03 06:06:40;;;;;;;24.60;16.00;;;17.30;99.90;;;;;;5018497;28;20397;-77
2022/07/03 06:09:06;;;;;;;24.60;15.60;;;17.50;99.90;;;;;;5017472;28;20046;-79
2022/07/03 06:11:31;;;;;;;26.60;15.75;;;17.60;99.90;;;;;;4983389;28;20092;-78
2022/07/03 06:13:57;;;;;;;21.07;12.67;;;17.60;99.90;;;;;;4983437;28;20367;-80
2022/07/03 06:16:23;;;;;;;18.63;11.47;;;17.80;99.90;;;;;;5017343;28;20049;-78
2022/07/03 06:18:49;;;;;;;19.60;10.77;;;17.80;99.90;;;;;;5017210;28;20494;-78
2022/07/03 06:21:15;;;;;;;16.80;10.17;;;17.90;99.90;;;;;;4999046;28;20042;-77
2022/07/03 06:23:41;;;;;;;16.17;9.47;;;18.00;99.90;;;;;;4982634;28;20395;-77
2022/07/03 06:26:06;;;;;;;17.10;11.37;;;18.00;99.90;;;;;;4999476;28;20191;-77
2022/07/03 06:28:32;;;;;;;20.23;11.17;;;18.10;99.90;;;;;;5016501;28;20122;-76
2022/07/03 06:30:58;;;;;;;19.13;11.77;;;18.10;99.90;;;;;;5016100;28;20422;-78
2022/07/03 06:33:24;;;;;;;20.27;11.40;;;18.20;99.90;;;;;;5016649;28;20133;-78
2022/07/03 06:35:50;;;;;;;15.53;10.43;;;18.30;99.90;;;;;;4999113;28;20049;-78
2022/07/03 06:38:15;;;;;;;18.53;7.37;;;18.50;99.90;;;;;;5016374;28;20085;-80
2022/07/03 06:40:41;;;;;;;13.13;6.53;;;18.60;99.90;;;;;;5017348;28;20060;-77
2022/07/03 06:43:07;;;;;;;14.73;5.83;;;18.70;99.90;;;;;;4982893;28;20046;-78
2022/07/03 06:45:33;;;;;;;10.50;3.97;;;18.80;99.90;;;;;;4998788;28;20494;-78
2022/07/03 06:47:58;;;;;;;9.80;4.00;;;18.90;99.90;;;;;;4998970;28;20049;-80
2022/07/03 06:50:24;;;;;;;9.70;4.27;;;18.90;99.90;;;;;;4982676;28;20486;-79
2022/07/03 06:52:50;;;;;;;12.37;4.30;;;18.90;99.90;;;;;;5016350;28;20121;-76
2022/07/03 06:55:16;;;;;;;10.33;4.83;;;19.00;99.90;;;;;;5016751;28;20061;-77
2022/07/03 06:57:41;;;;;;;12.23;4.80;;;19.10;99.90;;;;;;4998908;28;20397;-77
2022/07/03 07:00:08;;;;;;;10.00;4.87;;;19.20;99.90;;;;;;4998924;28;20049;-77
2022/07/03 07:02:33;;;;;;;9.77;5.10;;;19.30;99.90;;;;;;4998992;28;20114;-80
2022/07/03 07:04:59;;;;;;;12.40;5.87;;;19.30;99.90;;;;;;4998755;28;20074;-76
2022/07/03 07:07:25;;;;;;;13.70;5.40;;;19.50;99.90;;;;;;4998583;28;20046;-78
2022/07/03 07:09:51;;;;;;;11.17;5.17;;;19.60;99.90;;;;;;4982961;28;20466;-81
2022/07/03 07:12:17;;;;;;;11.07;5.40;;;19.70;99.90;;;;;;5016258;28;20108;-76
2022/07/03 07:14:43;;;;;;;14.05;5.22;;;19.80;99.90;;;;;;5015682;28;20578;-80
2022/07/03 07:17:08;;;;;;;11.57;5.20;;;19.80;99.90;;;;;;4997590;28;20046;-79
2022/07/03 07:19:34;;;;;;;10.77;4.30;;;19.90;99.90;;;;;;4998450;28;20573;-75
2022/07/03 07:22:01;;;;;;;15.83;5.13;;;20.00;99.90;;;;;;4998559;28;20049;-76
2022/07/03 07:24:29;;;;;;;9.27;3.92;;;20.10;99.90;;;;;;4999226;28;20095;-77
2022/07/03 07:26:55;;;;;;;13.48;4.32;;;20.20;99.90;;;;;;4998210;28;20041;-77
2022/07/03 07:29:21;;;;;;;10.60;3.57;;;20.30;99.90;;;;;;4998412;28;20045;-77
2022/07/03 07:31:47;;;;;;;12.20;3.90;;;20.20;99.90;;;;;;5016099;28;20375;-80
2022/07/03 07:34:13;;;;;;;10.80;3.40;;;20.40;99.90;;;;;;5015549;28;20438;-78
2022/07/03 07:36:39;;;;;;;9.63;2.88;;;20.40;99.90;;;;;;5015441;28;20157;-79
2022/07/03 07:39:05;;;;;;;8.30;2.30;;;20.40;99.90;;;;;;5015685;28;20085;-78
2022/07/03 07:41:31;;;;;;;8.30;2.70;;;20.40;99.90;;;;;;4982370;28;20082;-78
2022/07/03 07:43:56;;;;;;;6.90;2.10;;;20.40;99.20;;;;;;4999369;28;20113;-79
2022/07/03 07:46:23;;;;;;;5.50;1.93;;;20.50;99.60;;;;;;4982795;28;20516;-79
2022/07/03 07:48:49;;;;;;;7.63;1.95;;;20.50;99.70;;;;;;4998048;28;20320;-79
2022/07/03 07:51:14;;;;;;;5.37;1.70;;;20.70;99.00;;;;;;5016202;28;20092;-78
2022/07/03 07:53:40;;;;;;;4.70;1.30;;;20.80;98.10;;;;;;4998334;28;20038;-77
2022/07/03 07:56:06;;;;;;;7.40;1.67;;;21.00;96.20;;;;;;5016476;28;20050;-81
2022/07/03 07:58:31;;;;;;;5.83;1.70;;;21.20;96.00;;;;;;5015461;28;20466;-81
2022/07/03 08:06:26;;;;;;;8.95;3.67;;;22.10;96.90;;;;;;5015596;28;20067;-79
2022/07/03 08:08:51;;;;;;;9.93;2.83;;;22.40;96.70;;;;;;5015632;28;20046;-78
2022/07/03 08:11:17;;;;;;;12.17;2.67;;;22.50;96.50;;;;;;5015421;28;20467;-78
2022/07/03 08:13:45;;;;;;;8.90;2.73;;;22.50;96.60;;;;;;5014946;28;20052;-79
2022/07/03 08:16:12;;;;;;;9.02;2.20;;;22.50;96.80;;;;;;4982015;28;20320;-80
2022/07/03 08:18:38;;;;;;;7.13;2.17;;;22.30;96.50;;;;;;4982473;28;20049;-77
2022/07/03 08:21:03;;;;;;;6.37;1.93;;;22.30;96.10;;;;;;5018187;28;20080;-79
2022/07/03 08:23:29;;;;;;;5.27;1.43;;;22.20;96.50;;;;;;4999836;28;20069;-80
2022/07/03 08:25:55;;;;;;;7.30;1.63;;;21.90;96.60;;;;;;5021372;28;20101;-79
2022/07/03 08:28:21;;;;;;;9.40;1.70;;;21.90;96.50;;;;;;5011876;28;20050;-78
2022/07/03 08:30:47;;;;;;;9.03;1.67;;;21.80;96.40;;;;;;5012552;28;20046;-76
2022/07/03 08:33:12;;;;;;;7.55;1.90;;;21.90;96.30;;;;;;5001578;28;20038;-81
2022/07/03 08:35:38;;;;;;;8.97;2.03;;;21.80;96.40;;;;;;5015620;28;20061;-78
2022/07/03 08:38:04;;;;;;;5.30;1.83;;;21.70;96.10;;;;;;5016402;28;20110;-79
2022/07/03 08:40:31;;;;;;;10.03;1.30;;;21.80;95.50;;;;;;4997622;28;20045;-78
2022/07/03 08:43:00;;;;;;;3.58;0.98;;;22.00;96.00;;;;;;4998402;28;20115;-81
2022/07/03 08:45:27;;;;;;;5.97;0.93;;;22.20;95.30;;;;;;4998845;28;20089;-80
2022/07/03 08:47:58;;;;;;;8.13;1.67;;;22.40;94.90;;;;;;4997160;28;20614;-81
2022/07/03 08:50:24;;;;;;;4.97;1.27;;;22.50;94.50;;;;;;4983243;28;20072;-81
2022/07/03 08:52:51;;;;;;;6.05;1.30;;;22.80;94.00;;;;;;5017049;28;20075;-79
2022/07/03 08:55:18;;;;;;;6.47;1.10;;;22.80;92.80;;;;;;5016131;28;20096;-80
2022/07/03 08:57:46;;;;;;;6.43;1.20;;;22.80;92.60;;;;;;5004706;28;20409;-78
2022/07/03 09:00:18;;;;;;;6.13;1.33;;;22.80;93.10;;;;;;5033367;28;20049;-80
2022/07/03 09:02:46;;;;;;;5.45;1.00;;;22.50;93.50;;;;;;5018077;28;20041;-79
2022/07/03 09:05:12;;;;;;;9.68;1.33;;;22.30;93.00;;;;;;5000764;28;20050;-79
2022/07/03 09:07:40;;;;;;;6.88;1.45;;;22.10;92.90;;;;;;4999732;28;20041;-81
2022/07/03 09:10:11;;;;;;;5.70;1.20;;;21.90;93.80;;;;;;4992670;28;20101;-80
2022/07/03 09:12:38;;;;;;;6.88;1.00;;;22.00;94.00;;;;;;5032856;28;20057;-78
2022/07/03 09:15:06;;;;;;;3.70;0.75;;;22.00;93.70;;;;;;5011391;28;20042;-80
2022/07/03 09:17:32;;;;;;;7.55;1.17;;;22.10;93.20;;;;;;4992902;28;20105;-80
2022/07/03 09:20:00;;;;;;;3.70;0.80;;;22.20;93.60;;;;;;5008119;28;20046;-81
2022/07/03 09:22:31;;;;;;;5.18;1.00;;;22.30;93.40;;;;;;5026349;28;20042;-81
2022/07/03 09:25:16;;;;;;;4.70;1.00;;;22.40;92.70;;;;;;5026159;28;20054;-79
2022/07/03 09:27:52;;;;;;;6.10;1.05;;;22.70;91.90;;;;;;5022494;28;20049;-79
2022/07/03 09:30:19;;;;;;;8.43;1.23;;;22.60;91.80;;;;;;5016551;28;20180;-78
2022/07/03 09:32:46;;;;;;;10.10;1.30;;;22.30;92.70;;;;;;4997034;28;20469;-80
2022/07/03 09:35:26;;;;;;;4.57;0.90;;;22.40;92.50;;;;;;5013597;28;20046;-76
2022/07/03 09:37:58;;;;;;;5.57;0.70;;;22.40;92.50;;;;;;4996563;28;20049;-79
2022/07/03 09:40:26;;;;;;;4.22;0.70;;;22.60;92.70;;;;;;5013925;28;20128;-77
2022/07/03 09:42:58;;;;;;;5.55;0.70;;;22.70;90.60;;;;;;4996707;28;20049;-80
2022/07/03 09:45:24;;;;;;;3.20;0.70;;;22.70;91.20;;;;;;5014017;28;20057;-80
2022/07/03 09:47:50;;;;;;;13.25;0.95;;;22.90;91.50;;;;;;5013479;28;20496;-77
2022/07/03 09:50:16;;;;;;;5.93;0.70;;;23.00;90.90;;;;;;4996006;28;20053;-79
2022/07/03 09:52:47;;;;;;;3.57;0.70;;;23.00;91.30;;;;;;4995966;28;20494;-79
2022/07/03 09:55:19;;;;;;;2.65;0.70;;;23.10;91.40;;;;;;5014192;28;20042;-80
2022/07/03 09:57:51;;;;;;;5.40;0.77;;;23.10;90.00;;;;;;4996654;28;20041;-80
2022/07/03 10:00:17;;;;;;;2.53;0.70;;;23.00;90.00;;;;;;5013097;28;20056;-77
2022/07/03 10:02:54;;;;;;;2.33;0.57;;;23.00;89.80;;;;;;5013606;28;20046;-80
2022/07/03 10:05:22;;;;;;;4.00;0.50;;;23.00;86.70;;;;;;4996140;28;20056;-77
2022/07/03 10:07:56;;;;;;;5.97;1.00;;;23.10;88.60;;;;;;5013232;28;20141;-76
2022/07/03 10:10:23;;;;;;;6.20;1.50;;;23.00;88.90;;;;;;4996149;28;20415;-76
2022/07/03 10:12:51;;;;;;;5.15;1.00;;;23.10;90.30;;;;;;4995048;28;20090;-78
2022/07/03 10:15:18;;;;;;;4.10;0.85;;;23.10;90.70;;;;;;4995617;28;20057;-81
2022/07/03 10:17:48;;;;;;;3.50;0.80;;;23.20;88.00;;;;;;4995570;28;20050;-81
2022/07/03 10:20:15;;;;;;;6.00;0.80;;;23.30;86.20;;;;;;5013347;28;20054;-78
2022/07/03 10:22:45;;;;;;;5.22;0.93;;;23.30;88.60;;;;;;4996125;28;20049;-76
2022/07/03 10:25:11;;;;;;;5.75;1.10;;;23.60;89.40;;;;;;5013603;28;20112;-80
2022/07/03 10:27:38;;;;;;;4.90;0.90;;;23.40;88.70;;;;;;5013383;28;20053;-79
2022/07/03 10:30:04;;;;;;;3.80;0.80;;;23.50;89.30;;;;;;4995138;28;20050;-78
2022/07/03 10:32:33;;;;;;;4.68;0.90;;;23.60;88.90;;;;;;4995691;28;20394;-80
2022/07/03 10:35:03;;;;;;;4.25;0.80;;;23.40;89.10;;;;;;5013402;28;20114;-77
2022/07/03 10:37:55;;;;;;;5.05;0.88;;;23.20;90.20;;;;;;5013383;28;20054;-81
2022/07/03 10:46:23;;;;;;;5.43;1.00;;;23.40;90.60;;;;;;5013239;28;20054;-79
2022/07/03 10:48:55;;;;;;;5.43;1.10;;;23.30;90.00;;;;;;4995316;28;20137;-79
2022/07/03 10:51:21;;;;;;;5.40;0.95;;;23.50;90.30;;;;;;4980509;28;20046;-80
2022/07/03 10:53:47;;;;;;;5.30;1.00;;;23.90;90.00;;;;;;4984186;28;20508;-81
2022/07/03 10:56:14;;;;;;;;;;;24.00;89.20;;;;;;5018239;28;20050;-78
2022/07/03 10:59:00;;;;;;;6.85;0.95;;;23.90;90.10;;;;;;5000082;28;19921;-80
2022/07/03 11:01:31;;;;;;;3.50;0.77;;;24.00;89.40;;;;;;4999173;28;20556;-76
2022/07/03 11:04:00;;;;;;;4.68;0.77;;;23.80;89.00;;;;;;4983906;28;20096;-77
2022/07/03 11:06:44;;;;;;;12.65;1.15;;;23.70;87.90;;;;;;5000545;28;20093;-77
2022/07/03 11:09:12;;;;;;;5.60;1.20;;;23.70;87.20;;;;;;5018363;28;20046;-79
2022/07/03 11:11:54;;;;;;;4.07;0.70;;;23.70;89.10;;;;;;4999982;28;20041;-77
2022/07/03 11:14:32;;;;;;;4.68;0.85;;;23.70;89.80;;;;;;4983397;28;20046;-80
2022/07/03 11:17:21;;;;;;;4.93;0.82;;;23.60;89.10;;;;;;5013993;28;20447;-79
2022/07/03 11:22:38;;;;;;;;;;;23.60;86.00;;;;;;5017755;28;20050;-77
2022/07/03 11:25:08;;;;;;;4.45;0.80;;;23.60;86.00;;;;;;5017581;28;20340;-78
2022/07/03 11:27:36;;;;;;;4.78;0.70;;;23.70;86.20;;;;;;4998914;28;20128;-79
2022/07/03 11:30:03;;;;;;;3.30;0.70;;;23.70;86.30;;;;;;5016795;28;20088;-79
2022/07/03 11:33:00;;;;;;;3.72;0.60;;;23.70;84.50;;;;;;4968806;28;20505;-80
2022/07/03 11:35:48;;;;;;;3.97;0.60;;;23.80;84.70;;;;;;4973343;28;20145;-76
2022/07/03 11:38:16;;;;;;;3.20;0.77;;;23.90;82.20;;;;;;4984857;28;20049;-79
2022/07/03 11:40:44;;;;;;;2.55;0.65;;;23.90;84.00;;;;;;4985424;28;20057;-78
2022/07/03 11:43:11;;;;;;;3.53;0.60;;;23.90;83.90;;;;;;5001419;28;20111;-79
2022/07/03 11:45:40;;;;;;;6.93;0.63;;;23.70;82.40;;;;;;5019199;28;20145;-82
2022/07/03 11:48:13;;;;;;;5.13;0.85;;;23.50;81.80;;;;;;5019035;28;20092;-79
2022/07/03 11:50:40;;;;;;;3.90;0.60;;;23.50;85.30;;;;;;5003032;28;20079;-82
2022/07/03 11:53:15;;;;;;;5.40;0.75;;;23.90;83.60;;;;;;4986624;28;20061;-78
2022/07/03 11:55:49;;;;;;;2.65;0.50;;;23.90;83.40;;;;;;5004821;28;20053;-80
2022/07/03 11:58:15;;;;;;;5.40;0.70;;;24.00;83.70;;;;;;5012009;28;20057;-80
2022/07/03 12:00:41;;;;;;;2.83;0.80;;;24.00;82.00;;;;;;4976834;28;20088;-78
2022/07/03 12:03:07;;;;;;;4.45;0.70;;;23.90;83.10;;;;;;5024432;28;20288;-79
2022/07/03 12:05:33;;;;;;;2.00;0.60;;;24.00;84.30;;;;;;5004176;28;20051;-78
2022/07/03 12:08:04;;;;;;;2.75;0.70;;;24.40;84.90;;;;;;5017534;28;20163;-78
2022/07/03 12:10:40;;;;;;;3.75;0.90;;;24.50;85.00;;;;;;5018097;28;20120;-78
2022/07/03 12:13:20;;;;;;;4.55;0.80;;;24.50;85.60;;;;;;4999236;28;20165;-79
2022/07/03 12:15:47;;;;;;;7.72;1.13;;;24.60;84.70;;;;;;5000505;28;20045;-80
2022/07/03 12:18:13;;;;;;;5.45;1.17;;;24.60;83.30;;;;;;5016833;28;20480;-78
2022/07/03 12:20:38;;;;;;;10.40;1.10;;;24.10;87.00;;;;;;4999735;28;20132;-77
2022/07/03 12:23:05;;;;;;;7.10;1.00;;;24.10;87.60;;;;;;4968093;28;20073;-79
2022/07/03 12:25:31;;;;;;;7.75;0.98;;;24.10;87.30;;;;;;5017703;28;20049;-80
2022/07/03 12:27:57;;;;;;;7.78;1.17;;;23.90;87.70;;;;;;5000896;28;20068;-80
2022/07/03 12:30:27;;;;;;;8.48;1.30;;;23.90;86.60;;;;;;5018643;28;20052;-75
2022/07/03 12:32:54;;;;;;;7.82;1.38;;;23.90;86.90;;;;;;5018507;28;20045;-77
2022/07/03 12:35:27;;;;;;;8.02;1.25;;;23.80;88.10;;;;;;5000627;28;20045;-77
2022/07/03 12:37:59;;;;;;;6.45;1.30;;;23.70;87.20;;;;;;5000569;28;20038;-77
2022/07/03 12:40:25;;;;;;;3.47;0.97;;;23.50;87.60;;;;;;4999753;28;20359;-80
2022/07/03 12:42:55;;;;;;;6.53;1.25;;;23.50;87.50;;;;;;4969693;28;20084;-82
2022/07/03 12:45:23;;;;;;;6.43;1.08;;;23.50;87.90;;;;;;5018263;28;20071;-77
2022/07/03 12:48:03;;;;;;;6.38;1.30;;;23.40;88.20;;;;;;5002061;28;20111;-79
2022/07/03 12:50:51;;;;;;;7.55;1.13;;;23.50;88.70;;;;;;4984698;28;20058;-81
2022/07/03 12:53:34;;;;;;;6.45;1.00;;;23.70;86.80;;;;;;5017669;28;20052;-77
2022/07/03 12:56:01;;;;;;;5.03;0.90;;;23.80;87.20;;;;;;5017249;28;20534;-78
2022/07/03 13:01:39;;;;;;;6.65;1.20;;;24.00;84.70;;;;;;5018490;28;20050;-79
2022/07/03 13:04:08;;;;;;;6.78;1.15;;;24.30;84.20;;;;;;4999605;28;20396;-78
2022/07/03 13:06:34;;;;;;;7.32;1.20;;;24.30;84.60;;;;;;4999384;28;20046;-78
2022/07/03 13:09:05;;;;;;;6.20;1.00;;;24.20;85.40;;;;;;5018451;28;20045;-77
2022/07/03 13:11:41;;;;;;;5.38;1.00;;;24.20;85.70;;;;;;5017453;28;20042;-78
2022/07/03 13:14:12;;;;;;;4.28;0.80;;;23.80;81.80;;;;;;5018154;28;20042;-78
2022/07/03 13:16:50;;;;;;;6.35;0.98;;;23.70;82.80;;;;;;4984781;28;20060;-78